Time;durP1;ratioP1;P1;durP2;ratioP2;P2;SDS_P1;SDS_P2;PMS_P1;PMS_P2;Temp;Humidity;BMP_temperature;BMP_pressure;BME280_temperature;BME280_humidity;BME280_pressure;Samples;Min_cycle;Max_cycle;Signal;HPM_P1;HPM_P2
2021/11/28 00:00:05;;;;;;;11.82;5.55;;;-2.90;99.90;;;;;;5100319;28;20082;-74
2021/11/28 00:02:34;;;;;;;14.98;5.65;;;-2.90;99.90;;;;;;5081913;28;20118;-74
2021/11/28 00:05:04;;;;;;;17.98;4.97;;;-2.90;99.90;;;;;;5100074;28;20080;-74
2021/11/28 00:13:01;;;;;;;14.90;6.25;;;-2.90;99.90;;;;;;5099969;28;20077;-73
2021/11/28 00:15:29;;;;;;;12.38;5.47;;;-2.80;99.90;;;;;;5099522;28;20055;-74
2021/11/28 00:17:56;;;;;;;11.70;5.28;;;-2.80;99.90;;;;;;5098914;28;20100;-74
2021/11/28 00:20:24;;;;;;;11.88;5.03;;;-2.80;99.90;;;;;;5099257;28;20069;-74
2021/11/28 00:22:51;;;;;;;12.00;5.45;;;-2.80;99.90;;;;;;5098672;28;20034;-74
2021/11/28 00:25:20;;;;;;;10.80;4.68;;;-2.70;99.90;;;;;;5099275;28;20016;-74
2021/11/28 00:27:49;;;;;;;11.90;5.18;;;-2.70;99.90;;;;;;5098741;28;20024;-74
2021/11/28 00:30:26;;;;;;;9.10;4.93;;;-2.70;99.90;;;;;;5080762;28;20024;-74
2021/11/28 00:32:54;;;;;;;9.55;5.13;;;-2.60;99.90;;;;;;5097047;28;20035;-74
2021/11/28 00:35:22;;;;;;;15.10;5.55;;;-2.60;99.90;;;;;;5099008;28;20050;-74
2021/11/28 00:37:50;;;;;;;13.80;5.68;;;-2.50;99.90;;;;;;5099459;28;20420;-74
2021/11/28 00:40:18;;;;;;;10.45;5.35;;;-2.50;99.90;;;;;;5099670;28;20056;-74
2021/11/28 00:42:45;;;;;;;10.25;5.03;;;-2.50;99.90;;;;;;5097452;28;20111;-74
2021/11/28 00:45:12;;;;;;;9.60;4.82;;;-2.40;99.90;;;;;;5098682;28;20095;-74
2021/11/28 00:47:40;;;;;;;15.75;5.05;;;-2.30;99.90;;;;;;5081257;28;20435;-74
2021/11/28 00:52:40;;;;;;;12.68;4.55;;;-2.20;99.90;;;;;;5099073;28;20021;-74
2021/11/28 00:55:09;;;;;;;8.43;4.95;;;-2.10;99.90;;;;;;5098096;28;20359;-74
2021/11/28 00:57:37;;;;;;;18.95;5.55;;;-2.10;99.90;;;;;;5098553;28;20428;-74
2021/11/28 01:00:06;;;;;;;10.60;4.97;;;-2.00;99.90;;;;;;5079952;28;20047;-74
2021/11/28 01:02:34;;;;;;;11.43;4.75;;;-2.00;99.90;;;;;;5098191;28;20047;-74
2021/11/28 01:05:03;;;;;;;10.00;4.65;;;-1.90;99.90;;;;;;5098398;28;20059;-74
2021/11/28 01:07:32;;;;;;;7.72;4.70;;;-1.80;99.90;;;;;;5097943;28;20047;-74
2021/11/28 01:10:00;;;;;;;10.02;4.85;;;-1.80;99.90;;;;;;5079990;28;20112;-74
2021/11/28 01:12:27;;;;;;;11.13;5.00;;;-1.80;99.90;;;;;;5079879;28;20024;-74
2021/11/28 01:14:54;;;;;;;13.80;4.88;;;-1.70;99.90;;;;;;5079981;28;20031;-75
2021/11/28 01:17:22;;;;;;;9.63;4.45;;;-1.70;99.90;;;;;;5098597;28;20107;-74
2021/11/28 01:19:49;;;;;;;12.73;5.45;;;-1.70;99.90;;;;;;5098558;28;20016;-74
2021/11/28 01:22:18;;;;;;;11.48;5.13;;;-1.70;99.90;;;;;;5080456;28;20020;-74
2021/11/28 01:24:45;;;;;;;9.75;4.38;;;-1.80;99.90;;;;;;5098753;28;20020;-74
2021/11/28 01:27:15;;;;;;;14.77;4.80;;;-1.80;99.90;;;;;;5080460;28;20028;-74
2021/11/28 01:29:43;;;;;;;13.35;4.97;;;-1.80;99.90;;;;;;5098403;28;20099;-74
2021/11/28 01:32:12;;;;;;;11.20;4.13;;;-1.70;99.90;;;;;;5098806;28;20046;-74
2021/11/28 01:34:40;;;;;;;5.95;3.47;;;-1.70;99.90;;;;;;5098157;28;20031;-74
2021/11/28 01:37:08;;;;;;;9.75;5.07;;;-1.60;99.90;;;;;;5097292;28;20028;-74
2021/11/28 01:39:36;;;;;;;19.20;4.32;;;-1.50;99.90;;;;;;5097293;28;20423;-74
2021/11/28 01:42:04;;;;;;;10.02;4.20;;;-1.40;99.90;;;;;;5097096;28;20050;-74
2021/11/28 01:44:32;;;;;;;8.07;4.20;;;-1.30;99.90;;;;;;5079308;28;20424;-74
2021/11/28 01:47:00;;;;;;;10.63;4.55;;;-1.30;99.90;;;;;;5097168;28;20480;-74
2021/11/28 01:49:27;;;;;;;10.45;4.78;;;-1.40;99.90;;;;;;5097093;28;20319;-74
2021/11/28 01:51:55;;;;;;;8.05;4.70;;;-1.40;99.90;;;;;;5097152;28;20024;-74
2021/11/28 01:54:23;;;;;;;11.38;3.95;;;-1.50;99.90;;;;;;5097279;28;20032;-74
2021/11/28 01:56:52;;;;;;;10.25;4.00;;;-1.50;99.90;;;;;;5097668;28;20028;-75
2021/11/28 01:59:20;;;;;;;11.23;4.80;;;-1.50;99.90;;;;;;5097729;28;20043;-74
2021/11/28 02:01:48;;;;;;;9.13;4.90;;;-1.60;99.90;;;;;;5097840;28;20031;-74
2021/11/28 02:04:19;;;;;;;14.02;4.93;;;-1.60;99.90;;;;;;5097839;28;20048;-74
2021/11/28 02:06:48;;;;;;;11.13;4.55;;;-1.70;99.90;;;;;;5098219;28;20312;-74
2021/11/28 02:09:15;;;;;;;7.53;3.42;;;-1.70;99.90;;;;;;5097787;28;20028;-74
2021/11/28 02:11:45;;;;;;;7.68;3.45;;;-1.80;99.90;;;;;;5097826;28;20020;-74
2021/11/28 02:14:13;;;;;;;8.25;3.70;;;-1.80;99.90;;;;;;5097696;28;20034;-74
2021/11/28 02:16:40;;;;;;;11.82;4.05;;;-1.80;99.90;;;;;;5097212;28;20057;-74
2021/11/28 02:19:08;;;;;;;8.95;4.03;;;-1.90;99.90;;;;;;5078738;28;20402;-74
2021/11/28 02:21:35;;;;;;;5.85;3.90;;;-1.90;99.90;;;;;;5096724;28;20024;-74
2021/11/28 02:24:02;;;;;;;9.27;3.67;;;-2.00;99.90;;;;;;5078730;28;20093;-74
2021/11/28 02:26:30;;;;;;;12.60;3.67;;;-2.00;99.90;;;;;;5096818;28;20044;-74
2021/11/28 02:28:58;;;;;;;7.18;3.28;;;-2.10;99.90;;;;;;5097197;28;20095;-74
2021/11/28 02:31:25;;;;;;;7.63;3.92;;;-2.10;99.90;;;;;;5078683;28;20024;-74
2021/11/28 02:33:53;;;;;;;10.73;4.22;;;-2.20;99.90;;;;;;5096591;28;20473;-74
2021/11/28 02:36:21;;;;;;;9.38;3.58;;;-2.30;99.90;;;;;;5097587;28;20036;-74
2021/11/28 02:38:50;;;;;;;12.65;4.18;;;-2.30;99.90;;;;;;5097476;28;20435;-74
2021/11/28 02:41:17;;;;;;;10.30;4.03;;;-2.40;99.90;;;;;;5097399;28;20379;-74
2021/11/28 02:43:45;;;;;;;8.88;4.18;;;-2.30;99.90;;;;;;5097858;28;20347;-74
2021/11/28 02:46:14;;;;;;;12.65;3.45;;;-2.40;99.90;;;;;;5079565;28;20055;-74
2021/11/28 02:48:41;;;;;;;6.95;3.80;;;-2.40;99.90;;;;;;5097199;28;20024;-74
2021/11/28 02:51:09;;;;;;;10.20;4.25;;;-2.50;99.90;;;;;;5097748;28;20405;-74
2021/11/28 02:53:37;;;;;;;12.45;4.43;;;-2.50;99.90;;;;;;5079048;28;20055;-74
2021/11/28 02:56:07;;;;;;;8.10;4.10;;;-2.50;99.90;;;;;;5078553;28;20042;-74
2021/11/28 02:58:37;;;;;;;8.48;4.10;;;-2.60;99.90;;;;;;5096121;28;20044;-74
2021/11/28 03:01:18;;;;;;;8.98;3.63;;;-2.50;99.90;;;;;;5096244;28;20073;-74
2021/11/28 03:03:46;;;;;;;12.85;3.83;;;-2.50;99.90;;;;;;5096478;28;20435;-74
2021/11/28 03:06:14;;;;;;;6.88;3.83;;;-2.60;99.90;;;;;;5096349;28;20032;-74
2021/11/28 03:08:41;;;;;;;13.40;5.22;;;-2.60;99.90;;;;;;5097175;28;20024;-74
2021/11/28 03:11:11;;;;;;;8.68;3.80;;;-2.60;99.90;;;;;;5100177;28;20020;-74
2021/11/28 03:13:50;;;;;;;15.02;4.50;;;-2.60;99.90;;;;;;5100146;28;20319;-74
2021/11/28 03:16:24;;;;;;;12.23;4.82;;;-2.60;99.90;;;;;;5083153;28;20024;-74
2021/11/28 03:18:54;;;;;;;8.07;4.05;;;-2.50;99.90;;;;;;5100992;28;20024;-74
2021/11/28 03:21:30;;;;;;;11.55;3.65;;;-2.60;99.90;;;;;;5101063;28;20028;-74
2021/11/28 03:24:03;;;;;;;8.50;3.33;;;-2.60;99.90;;;;;;5101108;28;20024;-74
2021/11/28 03:26:38;;;;;;;9.45;3.92;;;-2.50;99.90;;;;;;5101032;28;20020;-74
2021/11/28 03:29:19;;;;;;;11.30;4.88;;;-2.50;99.90;;;;;;5100789;28;20443;-74
2021/11/28 03:31:50;;;;;;;7.93;3.22;;;-2.50;99.90;;;;;;5100689;28;20024;-74
2021/11/28 03:34:19;;;;;;;11.75;3.95;;;-2.40;99.90;;;;;;5100319;28;20312;-74
2021/11/28 03:36:56;;;;;;;11.05;4.30;;;-2.40;99.90;;;;;;5099992;28;20035;-74
2021/11/28 03:39:27;;;;;;;13.80;3.88;;;-2.30;99.90;;;;;;5099889;28;20107;-74
2021/11/28 03:42:06;;;;;;;18.85;3.75;;;-2.30;99.90;;;;;;5099946;28;20346;-74
2021/11/28 03:44:35;;;;;;;10.88;3.58;;;-2.20;99.90;;;;;;5099696;28;20077;-74
2021/11/28 03:47:03;;;;;;;8.63;3.85;;;-2.20;99.90;;;;;;5081503;28;20024;-74
2021/11/28 03:49:30;;;;;;;8.05;3.67;;;-2.20;99.90;;;;;;5099345;28;20032;-74
2021/11/28 03:51:58;;;;;;;8.30;3.80;;;-2.20;99.90;;;;;;5099620;28;20070;-74
2021/11/28 03:54:26;;;;;;;6.53;3.53;;;-2.20;99.90;;;;;;5100128;28;20017;-74
2021/11/28 03:56:53;;;;;;;9.23;4.00;;;-2.10;99.90;;;;;;5082395;28;20056;-74
2021/11/28 03:59:21;;;;;;;12.90;4.22;;;-2.10;99.90;;;;;;5082081;28;20416;-74
2021/11/28 04:01:48;;;;;;;9.18;3.55;;;-2.10;99.90;;;;;;5100128;28;20016;-74
2021/11/28 04:04:16;;;;;;;13.68;4.47;;;-2.10;99.90;;;;;;5100119;28;20412;-74
2021/11/28 04:06:43;;;;;;;7.28;2.92;;;-2.10;99.90;;;;;;5100404;28;20016;-74
2021/11/28 04:09:11;;;;;;;8.63;3.90;;;-2.10;99.90;;;;;;5100565;28;20183;-74
2021/11/28 04:11:39;;;;;;;9.82;3.53;;;-2.10;99.90;;;;;;5100060;28;20031;-74
2021/11/28 04:14:06;;;;;;;5.57;3.05;;;-2.10;99.90;;;;;;5099018;28;20027;-74
2021/11/28 04:16:34;;;;;;;5.35;2.75;;;-2.00;99.90;;;;;;5099752;28;20020;-74
2021/11/28 04:19:01;;;;;;;9.32;2.78;;;-2.00;99.90;;;;;;5099220;28;20103;-74
2021/11/28 04:21:29;;;;;;;10.48;3.17;;;-2.00;99.90;;;;;;5079444;28;20028;-74
2021/11/28 04:23:56;;;;;;;8.05;3.50;;;-2.00;99.90;;;;;;5080879;28;20051;-74
2021/11/28 04:26:24;;;;;;;7.32;3.80;;;-2.00;99.90;;;;;;5081049;28;20357;-74
2021/11/28 04:28:51;;;;;;;8.18;3.28;;;-2.00;99.90;;;;;;5099041;28;20077;-74
2021/11/28 04:31:18;;;;;;;8.70;2.92;;;-2.00;99.90;;;;;;5099076;28;20099;-74
2021/11/28 04:33:46;;;;;;;5.50;3.15;;;-1.90;99.90;;;;;;5099373;28;20024;-74
2021/11/28 04:36:13;;;;;;;6.22;3.35;;;-1.90;99.90;;;;;;5099412;28;20020;-74
2021/11/28 04:38:41;;;;;;;9.07;3.13;;;-1.90;99.90;;;;;;5099971;28;20036;-74
2021/11/28 04:41:08;;;;;;;9.75;3.08;;;-1.90;99.90;;;;;;5097783;28;20031;-74
2021/11/28 04:43:36;;;;;;;10.38;3.40;;;-1.90;99.90;;;;;;5099536;28;20020;-74
2021/11/28 04:46:03;;;;;;;6.95;3.28;;;-2.00;99.90;;;;;;5081376;28;20024;-74
2021/11/28 04:48:30;;;;;;;5.70;3.10;;;-1.90;99.90;;;;;;5099744;28;20413;-74
2021/11/28 04:50:58;;;;;;;7.25;2.75;;;-1.90;99.90;;;;;;5098960;28;20020;-74
2021/11/28 04:53:25;;;;;;;7.70;3.00;;;-1.90;99.90;;;;;;5098717;28;20028;-74
2021/11/28 04:55:52;;;;;;;7.00;3.00;;;-1.90;99.90;;;;;;5098217;28;20024;-74
2021/11/28 04:58:19;;;;;;;15.27;3.13;;;-1.90;99.90;;;;;;5098327;28;20052;-74
2021/11/28 05:00:47;;;;;;;4.63;2.85;;;-1.90;99.90;;;;;;5098543;28;20102;-74
2021/11/28 05:03:14;;;;;;;13.82;2.88;;;-1.80;99.90;;;;;;5097867;28;20031;-74
2021/11/28 05:05:42;;;;;;;7.30;3.38;;;-1.90;99.90;;;;;;5079996;28;20020;-74
2021/11/28 05:08:09;;;;;;;9.90;3.10;;;-1.90;99.90;;;;;;5098358;28;20019;-74
2021/11/28 05:10:36;;;;;;;7.35;2.80;;;-1.90;99.90;;;;;;5098257;28;20026;-74
2021/11/28 05:13:03;;;;;;;7.90;3.60;;;-1.90;99.90;;;;;;5098712;28;20023;-74
2021/11/28 05:15:31;;;;;;;5.97;3.03;;;-1.80;99.90;;;;;;5080662;28;20420;-74
2021/11/28 05:17:58;;;;;;;5.22;2.53;;;-1.80;99.90;;;;;;5098918;28;20024;-73
2021/11/28 05:20:25;;;;;;;8.68;2.85;;;-1.80;99.90;;;;;;5099025;28;20024;-74
2021/11/28 05:22:53;;;;;;;9.00;3.65;;;-1.80;99.90;;;;;;5098486;28;20024;-74
2021/11/28 05:25:20;;;;;;;6.57;3.15;;;-1.80;99.90;;;;;;5098543;28;20020;-74
2021/11/28 05:27:48;;;;;;;10.38;3.72;;;-1.80;99.90;;;;;;5099002;28;20016;-73
2021/11/28 05:30:17;;;;;;;6.90;2.90;;;-1.80;99.90;;;;;;5098671;28;20111;-73
2021/11/28 05:32:44;;;;;;;10.50;3.25;;;-1.80;99.90;;;;;;5079062;28;20424;-74
2021/11/28 05:35:11;;;;;;;13.32;3.55;;;-1.80;99.90;;;;;;5097531;28;20027;-74
2021/11/28 05:37:39;;;;;;;7.95;3.60;;;-1.90;99.90;;;;;;5097586;28;20027;-74
2021/11/28 05:40:07;;;;;;;8.38;3.17;;;-1.90;99.90;;;;;;5097407;28;20432;-73
2021/11/28 05:42:34;;;;;;;10.75;3.85;;;-1.90;99.90;;;;;;5079337;28;20328;-74
2021/11/28 05:45:02;;;;;;;8.48;3.80;;;-1.90;99.90;;;;;;5097562;28;20028;-74
2021/11/28 05:47:29;;;;;;;12.30;3.70;;;-1.90;99.90;;;;;;5097201;28;20012;-74
2021/11/28 05:49:57;;;;;;;14.50;4.05;;;-1.80;99.90;;;;;;5079268;28;20074;-74
2021/11/28 05:52:24;;;;;;;11.13;4.40;;;-1.80;99.90;;;;;;5097957;28;20028;-74
2021/11/28 05:54:55;;;;;;;11.10;3.60;;;-1.80;99.90;;;;;;5098724;28;20020;-74
2021/11/28 05:57:24;;;;;;;12.07;4.20;;;-1.70;99.90;;;;;;5079816;28;20332;-74
2021/11/28 05:59:51;;;;;;;10.45;3.88;;;-1.70;99.90;;;;;;5097778;28;20054;-74
2021/11/28 06:02:19;;;;;;;8.70;3.35;;;-1.60;99.90;;;;;;5098296;28;20016;-74
2021/11/28 06:04:46;;;;;;;10.32;4.25;;;-1.60;99.90;;;;;;5098272;28;20416;-74
2021/11/28 06:07:13;;;;;;;8.38;3.70;;;-1.50;99.90;;;;;;5097937;28;20016;-74
2021/11/28 06:09:40;;;;;;;8.98;3.33;;;-1.50;99.90;;;;;;5097199;28;20451;-74
2021/11/28 06:12:08;;;;;;;9.10;4.03;;;-1.50;99.90;;;;;;5096744;28;20024;-74
2021/11/28 06:14:35;;;;;;;7.10;3.80;;;-1.50;99.90;;;;;;5096845;28;20106;-74
2021/11/28 06:17:03;;;;;;;10.43;3.83;;;-1.40;99.90;;;;;;5078785;28;20301;-74
2021/11/28 06:19:30;;;;;;;10.98;4.78;;;-1.40;99.90;;;;;;5096936;28;20020;-74
2021/11/28 06:21:58;;;;;;;9.40;4.50;;;-1.40;99.90;;;;;;5096847;28;20050;-74
2021/11/28 06:24:25;;;;;;;9.60;3.55;;;-1.40;99.90;;;;;;5096482;28;20024;-74
2021/11/28 06:26:53;;;;;;;7.82;4.03;;;-1.40;99.90;;;;;;5096614;28;20087;-74
2021/11/28 06:29:21;;;;;;;9.65;3.58;;;-1.40;99.90;;;;;;5097203;28;20030;-74
2021/11/28 06:31:48;;;;;;;12.82;3.80;;;-1.40;99.90;;;;;;5097963;28;20023;-74
2021/11/28 06:34:16;;;;;;;14.88;3.88;;;-1.40;99.90;;;;;;5097436;28;20051;-74
2021/11/28 06:36:43;;;;;;;11.35;3.80;;;-1.30;99.90;;;;;;5097388;28;20107;-74
2021/11/28 06:39:11;;;;;;;17.08;5.32;;;-1.30;99.90;;;;;;5098136;28;20365;-74
2021/11/28 06:41:38;;;;;;;9.95;4.15;;;-1.30;99.90;;;;;;5097302;28;20044;-74
2021/11/28 06:44:05;;;;;;;9.68;3.97;;;-1.30;99.90;;;;;;5099068;28;20024;-74
2021/11/28 06:46:33;;;;;;;9.18;3.97;;;-1.30;99.90;;;;;;5083573;28;20434;-74
2021/11/28 06:49:00;;;;;;;7.78;3.80;;;-1.20;99.90;;;;;;5101973;28;20347;-74
2021/11/28 06:51:27;;;;;;;14.25;5.50;;;-1.20;99.90;;;;;;5082435;28;20438;-74
2021/11/28 06:53:55;;;;;;;21.73;8.50;;;-1.20;99.90;;;;;;5100997;28;20427;-73
2021/11/28 06:56:22;;;;;;;30.20;10.88;;;-1.20;99.90;;;;;;5100391;28;20020;-74
2021/11/28 06:58:49;;;;;;;21.80;9.68;;;-1.20;99.90;;;;;;5100576;28;20440;-74
2021/11/28 07:01:17;;;;;;;23.58;9.75;;;-1.10;99.90;;;;;;5100381;28;20052;-73
2021/11/28 07:03:44;;;;;;;27.20;9.98;;;-1.10;99.90;;;;;;5100534;28;20024;-74
2021/11/28 07:06:11;;;;;;;25.20;9.52;;;-1.10;99.90;;;;;;5100719;28;20027;-73
2021/11/28 07:08:39;;;;;;;14.63;5.43;;;-1.10;99.90;;;;;;5100691;28;20044;-73
2021/11/28 07:11:07;;;;;;;15.07;4.90;;;-1.10;99.90;;;;;;5101383;28;20027;-73
2021/11/28 07:13:34;;;;;;;12.05;4.78;;;-1.10;99.90;;;;;;5100982;28;20020;-74
2021/11/28 07:16:02;;;;;;;13.30;5.13;;;-1.10;99.90;;;;;;5101453;28;20024;-77
2021/11/28 07:18:29;;;;;;;14.73;4.90;;;-1.10;99.90;;;;;;5100838;28;20328;-79
2021/11/28 07:20:57;;;;;;;8.73;4.50;;;-1.00;99.90;;;;;;5082977;28;20047;-77
2021/11/28 07:23:25;;;;;;;9.75;4.10;;;-1.00;99.90;;;;;;5101109;28;20103;-75
2021/11/28 07:25:52;;;;;;;8.43;5.03;;;-1.00;99.90;;;;;;5101508;28;20316;-75
2021/11/28 07:28:19;;;;;;;8.20;4.22;;;-1.00;99.90;;;;;;5100152;28;20012;-77
2021/11/28 07:30:50;;;;;;;20.27;8.80;;;-1.00;99.90;;;;;;5100181;28;20313;-79
2021/11/28 07:33:18;;;;;;;22.40;9.93;;;-0.90;99.90;;;;;;5099764;28;20027;-77
2021/11/28 07:35:45;;;;;;;27.35;11.15;;;-0.90;99.90;;;;;;5081920;28;20020;-78
2021/11/28 07:38:13;;;;;;;16.58;6.75;;;-0.90;99.90;;;;;;5081534;28;20367;-77
2021/11/28 07:40:41;;;;;;;13.55;5.43;;;-0.80;99.90;;;;;;5081783;28;20028;-76
2021/11/28 07:43:10;;;;;;;9.07;4.95;;;-0.80;99.90;;;;;;5100136;28;20054;-76
2021/11/28 07:45:37;;;;;;;14.00;4.60;;;-0.70;99.90;;;;;;5081996;28;20319;-78
2021/11/28 07:48:05;;;;;;;9.57;4.53;;;-0.70;99.90;;;;;;5099473;28;20016;-78
2021/11/28 07:50:33;;;;;;;10.25;5.13;;;-0.60;99.90;;;;;;5100563;28;20012;-71
2021/11/28 07:53:00;;;;;;;10.68;5.32;;;-0.60;99.90;;;;;;5100221;28;20024;-71
2021/11/28 07:55:28;;;;;;;9.25;4.82;;;-0.60;99.90;;;;;;5100189;28;20028;-72
2021/11/28 07:57:56;;;;;;;11.93;4.70;;;-0.50;99.90;;;;;;5100065;28;20028;-73
2021/11/28 08:00:23;;;;;;;12.00;6.05;;;-0.50;99.90;;;;;;5100463;28;20039;-69
2021/11/28 08:02:51;;;;;;;15.80;5.10;;;-0.40;99.90;;;;;;5082114;28;20379;-70
2021/11/28 08:05:19;;;;;;;7.70;4.05;;;-0.30;99.90;;;;;;5100578;28;20020;-71
2021/11/28 08:07:46;;;;;;;11.18;4.57;;;-0.30;99.90;;;;;;5099629;28;20465;-70
2021/11/28 08:10:14;;;;;;;11.63;5.40;;;-0.20;99.90;;;;;;5099604;28;20024;-73
2021/11/28 08:12:40;;;;;;;12.13;4.93;;;-0.20;99.90;;;;;;5099481;28;20107;-70
2021/11/28 08:15:12;;;;;;;15.05;5.75;;;-0.10;99.90;;;;;;5099925;28;20050;-71
2021/11/28 08:17:40;;;;;;;16.40;5.88;;;0.00;99.90;;;;;;5098905;28;20050;-72
2021/11/28 08:20:09;;;;;;;10.13;5.53;;;0.00;99.90;;;;;;5099172;28;20170;-71
2021/11/28 08:22:37;;;;;;;11.45;6.15;;;0.10;99.90;;;;;;5080731;28;20366;-71
2021/11/28 08:25:07;;;;;;;13.68;6.07;;;0.10;99.90;;;;;;5099350;28;20028;-71
2021/11/28 08:27:35;;;;;;;95.07;33.38;;;0.10;99.90;;;;;;5099428;28;20040;-71
2021/11/28 08:30:10;;;;;;;49.85;18.15;;;0.20;99.90;;;;;;5099672;28;20015;-71
2021/11/28 08:32:39;;;;;;;16.38;7.93;;;0.20;99.90;;;;;;5100181;28;20054;-71
2021/11/28 08:35:09;;;;;;;14.75;5.80;;;0.30;99.90;;;;;;5099938;28;20032;-71
2021/11/28 08:37:37;;;;;;;14.20;6.47;;;0.30;99.90;;;;;;5099679;28;20427;-71
2021/11/28 08:40:07;;;;;;;11.13;5.43;;;0.30;99.90;;;;;;5099549;28;20051;-71
2021/11/28 08:42:34;;;;;;;10.23;6.22;;;0.30;99.90;;;;;;5099806;28;20157;-71
2021/11/28 08:45:08;;;;;;;17.13;5.72;;;0.30;99.90;;;;;;5099861;28;20017;-70
2021/11/28 08:47:36;;;;;;;10.85;5.95;;;0.40;99.90;;;;;;5098723;28;20027;-71
2021/11/28 08:50:05;;;;;;;10.93;6.15;;;0.30;99.90;;;;;;5098970;28;20320;-71
2021/11/28 08:52:34;;;;;;;11.73;5.65;;;0.30;99.90;;;;;;5098385;28;20039;-71
2021/11/28 08:55:02;;;;;;;10.10;5.60;;;0.30;99.90;;;;;;5098422;28;20024;-70
2021/11/28 08:57:30;;;;;;;11.18;5.82;;;0.40;99.90;;;;;;5080254;28;20050;-71
2021/11/28 08:59:57;;;;;;;16.27;6.20;;;0.40;99.90;;;;;;5098078;28;20040;-71
2021/11/28 09:02:25;;;;;;;19.67;7.72;;;0.40;99.90;;;;;;5080884;28;20059;-77
2021/11/28 09:04:52;;;;;;;14.73;7.00;;;0.40;99.90;;;;;;5080305;28;20027;-71
2021/11/28 09:07:20;;;;;;;18.90;10.98;;;0.40;99.90;;;;;;5079329;28;20108;-70
2021/11/28 09:09:47;;;;;;;15.88;8.40;;;0.40;99.90;;;;;;5099404;28;20019;-70
2021/11/28 09:12:15;;;;;;;35.20;12.80;;;0.50;99.90;;;;;;5099404;28;20020;-70
2021/11/28 09:14:42;;;;;;;15.18;8.75;;;0.50;99.90;;;;;;5099580;28;20020;-69
2021/11/28 09:17:10;;;;;;;17.33;9.07;;;0.60;99.90;;;;;;5080795;28;20027;-70
2021/11/28 09:19:46;;;;;;;18.67;7.18;;;0.70;99.90;;;;;;5098589;28;20031;-72
2021/11/28 09:22:22;;;;;;;15.15;6.25;;;0.70;99.90;;;;;;5098220;28;20024;-71
2021/11/28 09:24:51;;;;;;;14.00;6.43;;;0.90;99.90;;;;;;5098735;28;20027;-72
2021/11/28 09:27:21;;;;;;;14.00;6.97;;;1.00;99.90;;;;;;5097690;28;20024;-71
2021/11/28 09:29:50;;;;;;;15.48;5.97;;;1.10;99.90;;;;;;5097512;28;20024;-71
2021/11/28 09:32:18;;;;;;;10.13;6.38;;;1.20;99.90;;;;;;5097521;28;20420;-70
2021/11/28 09:34:45;;;;;;;10.90;5.90;;;1.30;99.90;;;;;;5097388;28;20145;-70
2021/11/28 09:37:13;;;;;;;13.30;6.47;;;1.40;99.90;;;;;;5097743;28;20024;-70
2021/11/28 09:39:45;;;;;;;15.05;6.57;;;1.50;99.90;;;;;;5097511;28;20031;-71
2021/11/28 09:42:17;;;;;;;12.70;6.88;;;1.60;99.90;;;;;;5097757;28;20035;-71
2021/11/28 09:44:46;;;;;;;15.38;6.63;;;1.60;99.90;;;;;;5097703;28;20438;-71
2021/11/28 09:47:13;;;;;;;12.60;5.93;;;1.60;99.90;;;;;;5080992;28;20027;-71
2021/11/28 09:49:44;;;;;;;11.75;6.53;;;1.70;99.90;;;;;;5063795;28;20420;-72
2021/11/28 09:52:19;;;;;;;12.48;6.15;;;1.70;99.90;;;;;;5098683;28;20036;-70
2021/11/28 09:54:47;;;;;;;9.30;5.60;;;1.70;99.90;;;;;;5098043;28;20099;-70
2021/11/28 09:57:17;;;;;;;11.45;5.88;;;1.70;99.90;;;;;;5098452;28;20392;-70
2021/11/28 09:59:46;;;;;;;13.05;6.85;;;1.70;99.90;;;;;;5097903;28;20047;-70
2021/11/28 10:02:30;;;;;;;17.15;6.93;;;1.70;99.90;;;;;;5098249;28;20024;-71
2021/11/28 10:05:00;;;;;;;14.98;6.60;;;1.60;99.90;;;;;;5097221;28;20416;-70
2021/11/28 10:07:28;;;;;;;12.05;6.80;;;1.60;99.90;;;;;;5097081;28;20034;-71
2021/11/28 10:09:56;;;;;;;12.88;7.00;;;1.60;99.90;;;;;;5097635;28;20027;-70
2021/11/28 10:12:31;;;;;;;14.65;7.63;;;1.70;99.90;;;;;;5097671;28;20031;-73
2021/11/28 10:15:07;;;;;;;12.48;6.25;;;1.80;99.90;;;;;;5078950;28;20024;-73
2021/11/28 10:17:36;;;;;;;13.23;6.93;;;1.90;99.90;;;;;;5078827;28;20027;-70
2021/11/28 10:20:09;;;;;;;17.42;7.05;;;2.00;99.90;;;;;;5096955;28;20432;-71
2021/11/28 10:22:37;;;;;;;15.82;7.68;;;2.10;99.90;;;;;;5096481;28;20048;-71
2021/11/28 10:25:26;;;;;;;12.77;6.25;;;2.30;99.90;;;;;;5097471;28;20043;-71
2021/11/28 10:28:05;;;;;;;14.38;7.32;;;2.40;99.90;;;;;;5098130;28;20020;-69
2021/11/28 10:30:43;;;;;;;14.95;5.32;;;2.50;99.90;;;;;;5079840;28;20035;-70
2021/11/28 10:33:15;;;;;;;13.05;5.75;;;2.60;99.90;;;;;;5097825;28;20036;-71
2021/11/28 10:36:07;;;;;;;11.65;5.88;;;2.70;99.90;;;;;;5098072;28;20074;-70
2021/11/28 10:38:43;;;;;;;11.20;5.85;;;2.90;99.90;;;;;;5097402;28;20024;-70
2021/11/28 10:41:21;;;;;;;13.75;6.97;;;2.90;99.90;;;;;;5097018;28;20392;-70
2021/11/28 10:43:48;;;;;;;14.90;6.32;;;3.00;99.90;;;;;;5096343;28;20043;-70
2021/11/28 10:46:33;;;;;;;15.20;5.88;;;3.00;99.90;;;;;;5096950;28;20016;-71
2021/11/28 10:49:09;;;;;;;13.27;7.30;;;3.10;99.90;;;;;;5096762;28;20047;-71
2021/11/28 10:51:46;;;;;;;14.52;6.30;;;3.10;99.90;;;;;;5078492;28;20099;-70
2021/11/28 10:54:35;;;;;;;13.05;6.53;;;3.20;99.90;;;;;;5078472;28;20020;-73
2021/11/28 10:57:10;;;;;;;13.07;5.93;;;3.20;99.90;;;;;;5096349;28;20023;-69
2021/11/28 10:59:40;;;;;;;17.75;9.23;;;3.20;99.90;;;;;;5096558;28;20044;-73
2021/11/28 11:02:30;;;;;;;22.70;9.15;;;3.20;99.90;;;;;;5096975;28;20111;-71
2021/11/28 11:04:59;;;;;;;17.30;8.38;;;3.30;99.90;;;;;;5097575;28;20012;-69
2021/11/28 11:07:27;;;;;;;15.73;7.13;;;3.30;99.90;;;;;;5097135;28;20021;-69
2021/11/28 11:09:56;;;;;;;20.30;8.32;;;3.30;99.90;;;;;;5097514;28;20074;-70
2021/11/28 11:12:28;;;;;;;16.75;7.60;;;3.30;99.90;;;;;;5097084;28;20024;-70
2021/11/28 11:14:57;;;;;;;17.98;8.00;;;3.30;99.90;;;;;;5097207;28;20028;-69
2021/11/28 11:17:27;;;;;;;17.08;6.85;;;3.40;99.90;;;;;;5097285;28;20054;-76
2021/11/28 11:19:57;;;;;;;23.35;9.10;;;3.40;99.90;;;;;;5097020;28;20027;-72
2021/11/28 11:22:35;;;;;;;16.90;7.68;;;3.40;99.90;;;;;;5096020;28;20027;-70
2021/11/28 11:25:19;;;;;;;14.95;7.15;;;3.50;99.90;;;;;;5096111;28;20028;-77
2021/11/28 11:27:48;;;;;;;13.80;7.03;;;3.50;99.90;;;;;;5096320;28;20358;-71
2021/11/28 11:30:26;;;;;;;15.10;7.10;;;3.60;99.90;;;;;;5097799;28;20043;-70
2021/11/28 11:32:57;;;;;;;14.80;7.22;;;3.50;99.90;;;;;;5099676;28;20024;-69
2021/11/28 11:35:32;;;;;;;17.50;7.65;;;3.50;99.90;;;;;;5100393;28;20073;-70
2021/11/28 11:38:05;;;;;;;18.45;9.27;;;3.60;99.90;;;;;;5099707;28;20024;-69
2021/11/28 11:40:33;;;;;;;15.75;7.95;;;3.50;99.90;;;;;;5100549;28;20336;-69
2021/11/28 11:43:01;;;;;;;13.35;7.60;;;3.60;99.90;;;;;;5100566;28;20028;-69
2021/11/28 11:45:33;;;;;;;22.77;7.88;;;3.60;99.90;;;;;;5100563;28;20027;-69
2021/11/28 11:48:01;;;;;;;16.83;7.07;;;3.60;99.90;;;;;;5100448;28;20320;-70
2021/11/28 11:50:31;;;;;;;22.15;8.25;;;3.60;99.90;;;;;;5101112;28;20016;-73
2021/11/28 11:52:59;;;;;;;13.18;8.18;;;3.60;99.90;;;;;;5100334;28;20024;-73
2021/11/28 11:55:40;;;;;;;15.80;7.28;;;3.50;99.90;;;;;;5082356;28;20080;-74
2021/11/28 11:58:24;;;;;;;27.10;12.48;;;3.50;99.90;;;;;;5099577;28;20420;-74
2021/11/28 12:01:08;;;;;;;18.55;7.55;;;3.50;99.90;;;;;;5100316;28;20028;-71
2021/11/28 12:03:54;;;;;;;16.98;7.43;;;3.50;99.90;;;;;;5099173;28;20052;-71
2021/11/28 12:06:48;;;;;;;13.38;6.80;;;3.50;99.90;;;;;;5081172;28;20412;-71
2021/11/28 12:09:30;;;;;;;18.77;8.93;;;3.50;99.90;;;;;;5099829;28;20024;-72
2021/11/28 12:12:08;;;;;;;21.30;7.47;;;3.50;99.90;;;;;;5098994;28;20020;-72
2021/11/28 12:14:36;;;;;;;14.82;7.53;;;3.50;99.90;;;;;;5099899;28;20074;-72
2021/11/28 12:17:37;;;;;;;15.15;8.48;;;3.60;99.90;;;;;;5099015;28;20020;-73
2021/11/28 12:20:05;;;;;;;13.10;7.38;;;3.60;99.90;;;;;;5081529;28;20078;-69
2021/11/28 12:22:47;;;;;;;12.45;6.80;;;3.50;99.90;;;;;;5082971;28;20021;-70
2021/11/28 12:25:39;;;;;;;18.58;8.57;;;3.60;99.90;;;;;;5081824;28;20043;-72
2021/11/28 12:28:41;;;;;;;14.40;7.35;;;3.60;99.90;;;;;;5100261;28;20020;-72
2021/11/28 12:31:11;;;;;;;20.08;7.78;;;3.60;99.90;;;;;;5064561;28;20028;-71
2021/11/28 12:33:52;;;;;;;19.90;8.93;;;3.60;99.90;;;;;;5100043;28;20024;-71
2021/11/28 12:36:49;;;;;;;14.95;8.23;;;3.60;99.90;;;;;;5099803;28;20020;-70
2021/11/28 12:39:22;;;;;;;17.83;8.35;;;3.60;99.90;;;;;;5068474;28;20040;-70
2021/11/28 12:42:03;;;;;;;15.02;8.38;;;3.60;99.90;;;;;;5097922;28;20416;-70
2021/11/28 12:44:35;;;;;;;15.18;8.20;;;3.60;99.90;;;;;;5098843;28;20032;-70
2021/11/28 12:47:24;;;;;;;15.73;8.68;;;3.50;99.90;;;;;;5098377;28;20016;-70
2021/11/28 12:49:54;;;;;;;14.15;7.70;;;3.50;99.90;;;;;;5098612;28;20031;-78
2021/11/28 12:52:31;;;;;;;13.73;7.93;;;3.50;99.90;;;;;;5098504;28;20020;-70
2021/11/28 12:55:08;;;;;;;16.98;8.40;;;3.60;99.90;;;;;;5098785;28;20031;-70
2021/11/28 12:57:45;;;;;;;17.70;8.93;;;3.60;99.90;;;;;;5099147;28;20020;-70
2021/11/28 13:00:22;;;;;;;20.65;8.23;;;3.60;99.90;;;;;;5098784;28;20048;-70
2021/11/28 13:03:01;;;;;;;16.95;8.40;;;3.60;99.90;;;;;;5098941;28;20424;-71
2021/11/28 13:05:38;;;;;;;18.85;10.13;;;3.70;99.90;;;;;;5099009;28;20079;-70